Time;durP1;ratioP1;P1;durP2;ratioP2;P2;SDS_P1;SDS_P2;PMS_P1;PMS_P2;Temp;Humidity;BMP_temperature;BMP_pressure;BME280_temperature;BME280_humidity;BME280_pressure;Samples;Min_cycle;Max_cycle;Signal;HPM_P1;HPM_P2
2022/01/23 00:02:24;;;;;;;3.53;2.73;;;16.90;63.40;;;;;;5074525;28;20993;-81
2022/01/23 00:04:52;;;;;;;3.93;3.47;;;16.90;63.40;;;;;;5080700;28;20978;-81
2022/01/23 00:07:22;;;;;;;4.17;3.20;;;17.00;63.40;;;;;;5079466;28;20465;-81
2022/01/23 00:09:50;;;;;;;3.67;2.80;;;17.00;63.60;;;;;;5080210;28;20426;-81
2022/01/23 00:12:23;;;;;;;3.33;3.03;;;16.90;63.40;;;;;;5080402;28;20524;-81
2022/01/23 00:17:39;;;;;;;4.27;3.17;;;16.90;63.40;;;;;;5067487;28;20519;-81
2022/01/23 00:20:11;;;;;;;2.90;2.70;;;16.90;63.40;;;;;;5082914;28;20450;-82
2022/01/23 00:22:43;;;;;;;4.17;3.17;;;16.90;63.50;;;;;;5077475;28;20459;-82
2022/01/23 00:30:54;;;;;;;2.50;2.30;;;16.90;63.40;;;;;;5022599;28;20462;-83
2022/01/23 00:33:23;;;;;;;3.60;3.03;;;16.90;63.60;;;;;;5072344;28;20480;-83
2022/01/23 00:35:51;;;;;;;2.93;2.73;;;16.90;63.40;;;;;;5071366;28;20501;-83
2022/01/23 00:38:22;;;;;;;6.17;3.33;;;17.00;63.60;;;;;;5077593;28;20465;-83
2022/01/23 00:40:50;;;;;;;3.57;3.27;;;16.90;63.40;;;;;;5076929;28;20442;-83
2022/01/23 00:43:26;;;;;;;2.60;2.40;;;16.90;63.40;;;;;;5072320;28;20560;-83
2022/01/23 00:46:07;;;;;;;3.70;3.00;;;17.00;63.60;;;;;;5077602;28;20467;-83
2022/01/23 00:48:38;;;;;;;4.77;3.03;;;17.00;63.50;;;;;;5077786;28;20517;-83
2022/01/23 00:51:06;;;;;;;3.10;2.70;;;16.90;63.40;;;;;;5077320;28;20495;-83
2022/01/23 00:53:36;;;;;;;3.60;3.30;;;16.90;63.40;;;;;;5076331;28;20497;-83
2022/01/23 00:56:04;;;;;;;3.00;2.80;;;16.90;63.40;;;;;;5077444;28;20473;-83
2022/01/23 00:58:32;;;;;;;3.27;2.93;;;16.90;63.40;;;;;;5078306;28;20461;-83
2022/01/23 01:01:00;;;;;;;4.60;2.83;;;16.90;63.60;;;;;;5077667;28;20529;-83
2022/01/23 01:03:28;;;;;;;3.17;2.73;;;16.90;63.50;;;;;;5076911;28;20458;-83
2022/01/23 01:05:57;;;;;;;3.00;2.70;;;16.90;63.40;;;;;;5077479;28;20525;-83
2022/01/23 01:08:24;;;;;;;3.23;2.93;;;16.90;63.50;;;;;;5077295;28;20468;-83
2022/01/23 01:11:10;;;;;;;3.57;3.20;;;16.90;63.50;;;;;;5075709;28;20564;-83
2022/01/23 01:13:56;;;;;;;3.50;3.20;;;16.80;63.50;;;;;;5077154;28;20452;-83
2022/01/23 01:16:41;;;;;;;2.90;2.50;;;16.80;63.60;;;;;;5077427;28;20511;-83
2022/01/23 01:30:34;;;;;;;2.67;2.47;;;16.90;63.50;;;;;;5071250;28;20513;-83
2022/01/23 01:33:13;;;;;;;3.00;2.80;;;16.80;63.50;;;;;;5077985;28;20509;-83
2022/01/23 01:35:47;;;;;;;2.80;2.60;;;16.80;63.60;;;;;;5077057;28;20515;-83
2022/01/23 01:38:15;;;;;;;3.07;2.80;;;16.80;63.60;;;;;;5077653;28;20421;-83
2022/01/23 01:40:43;;;;;;;3.20;2.90;;;16.80;63.50;;;;;;5077240;28;20556;-83
2022/01/23 01:43:12;;;;;;;3.57;3.27;;;16.90;63.70;;;;;;5077436;28;20493;-83
2022/01/23 01:45:42;;;;;;;7.00;3.17;;;16.80;63.60;;;;;;5074465;28;20465;-83
2022/01/23 01:48:10;;;;;;;3.30;3.00;;;16.80;63.50;;;;;;5075301;28;20870;-83
2022/01/23 01:50:43;;;;;;;2.90;2.70;;;16.80;63.50;;;;;;5077900;28;20430;-83
2022/01/23 01:53:12;;;;;;;2.80;2.50;;;16.90;63.60;;;;;;5081318;28;20460;-83
2022/01/23 01:55:43;;;;;;;3.10;2.80;;;16.80;63.40;;;;;;5081422;28;20508;-83
2022/01/23 01:58:33;;;;;;;4.17;3.30;;;16.80;63.50;;;;;;5081029;28;20446;-83
2022/01/23 02:01:04;;;;;;;3.10;2.90;;;16.80;63.60;;;;;;5081394;28;20446;-83
2022/01/23 02:09:12;;;;;;;2.73;2.53;;;16.90;63.60;;;;;;5081360;28;20468;-83
2022/01/23 02:12:07;;;;;;;3.07;2.50;;;16.80;63.50;;;;;;5081086;28;20421;-83
2022/01/23 02:14:45;;;;;;;3.03;2.80;;;16.80;64.30;;;;;;5080556;28;20484;-83
2022/01/23 02:17:38;;;;;;;3.20;2.67;;;16.80;63.60;;;;;;5080594;28;20978;-83
2022/01/23 02:23:07;;;;;;;2.97;2.77;;;16.80;63.70;;;;;;5079832;28;20437;-83
2022/01/23 02:50:42;;;;;;;2.73;2.53;;;16.80;63.70;;;;;;5059550;28;20451;-83
2022/01/23 02:53:30;;;;;;;2.63;2.43;;;16.80;63.80;;;;;;5061606;28;20561;-83
2022/01/23 02:55:59;;;;;;;2.80;2.50;;;16.80;63.60;;;;;;5059533;28;20466;-83
2022/01/23 02:58:34;;;;;;;3.20;3.00;;;16.80;63.60;;;;;;5061767;28;20458;-83
2022/01/23 03:01:15;;;;;;;2.80;2.60;;;16.80;63.70;;;;;;5060225;28;20537;-83
2022/01/23 03:03:46;;;;;;;3.33;3.13;;;16.80;63.90;;;;;;5058371;28;20461;-83
2022/01/23 03:06:34;;;;;;;2.67;2.43;;;16.90;63.80;;;;;;5072864;28;20433;-83
2022/01/23 03:12:49;;;;;;;3.20;2.63;;;16.80;63.70;;;;;;5077995;28;20453;-83
2022/01/23 03:15:10;;;;;;;2.60;2.40;;;16.80;63.80;;;;;;5079014;28;20484;-83
2022/01/23 03:26:14;;;;;;;3.07;2.53;;;16.80;63.70;;;;;;5077997;28;20469;-83
2022/01/23 03:29:02;;;;;;;3.10;2.80;;;16.80;63.90;;;;;;5079047;28;20468;-83
2022/01/23 03:31:33;;;;;;;2.50;2.37;;;16.80;63.80;;;;;;5079111;28;20489;-83
2022/01/23 03:34:01;;;;;;;3.00;2.70;;;16.80;63.90;;;;;;5078895;28;20979;-83
2022/01/23 03:36:29;;;;;;;2.80;2.60;;;16.80;63.90;;;;;;5079121;28;20560;-83
2022/01/23 03:38:57;;;;;;;4.17;2.77;;;16.80;63.80;;;;;;5078486;28;20473;-83
2022/01/23 03:41:31;;;;;;;2.70;2.60;;;16.80;63.70;;;;;;5078458;28;20532;-83
2022/01/23 03:44:01;;;;;;;2.60;2.50;;;16.80;63.60;;;;;;5067747;28;20477;-83
2022/01/23 03:46:47;;;;;;;2.50;2.40;;;16.80;63.60;;;;;;5080762;28;20971;-82
2022/01/23 03:49:31;;;;;;;2.63;2.50;;;16.80;63.60;;;;;;5074516;28;20492;-82
2022/01/23 03:52:02;;;;;;;7.80;2.90;;;16.80;63.60;;;;;;5073964;28;20807;-82
2022/01/23 03:54:30;;;;;;;2.90;2.70;;;16.80;63.50;;;;;;5074048;28;20521;-82
2022/01/23 03:57:00;;;;;;;3.53;2.83;;;16.70;63.70;;;;;;5073874;28;20469;-83
2022/01/23 03:59:28;;;;;;;3.00;2.77;;;16.80;63.80;;;;;;5073397;28;20537;-83
2022/01/23 04:01:56;;;;;;;3.20;2.73;;;16.80;63.80;;;;;;5073988;28;20517;-82
2022/01/23 04:04:37;;;;;;;3.07;2.70;;;16.70;63.80;;;;;;5073980;28;20465;-82
2022/01/23 04:07:06;;;;;;;2.70;2.50;;;16.70;63.60;;;;;;5073976;28;20445;-82
2022/01/23 04:09:35;;;;;;;2.63;2.43;;;16.70;63.80;;;;;;5074099;28;20516;-82
2022/01/23 04:12:06;;;;;;;2.53;2.33;;;16.70;63.70;;;;;;5074530;28;20478;-82
2022/01/23 04:14:36;;;;;;;2.83;2.63;;;16.80;63.80;;;;;;5076987;28;20544;-82
2022/01/23 04:18:05;;;;;;;2.80;2.60;;;16.80;63.80;;;;;;5072071;28;20489;-82
2022/01/23 04:31:47;;;;;;;3.30;2.90;;;16.80;63.60;;;;;;5071149;28;20478;-82
2022/01/23 04:34:21;;;;;;;2.40;2.20;;;16.70;63.80;;;;;;5054531;28;20557;-82
2022/01/23 04:45:25;;;;;;;2.70;2.50;;;16.80;63.80;;;;;;5054257;28;20513;-82
2022/01/23 05:01:58;;;;;;;2.33;2.23;;;16.80;64.10;;;;;;5061262;28;20824;-82
2022/01/23 05:04:31;;;;;;;3.23;2.93;;;16.80;64.10;;;;;;5055133;28;20566;-82
2022/01/23 05:07:02;;;;;;;6.70;2.83;;;16.80;64.00;;;;;;5074828;28;20775;-82
2022/01/23 05:09:31;;;;;;;2.60;2.40;;;16.80;63.90;;;;;;5094009;28;20437;-82
2022/01/23 05:12:00;;;;;;;3.10;2.80;;;16.80;64.10;;;;;;5094674;28;20523;-82
2022/01/23 05:14:32;;;;;;;3.80;2.20;;;16.90;63.90;;;;;;5094315;28;20547;-82
2022/01/23 05:17:01;;;;;;;2.83;2.60;;;16.80;63.70;;;;;;5094751;28;20495;-82
2022/01/23 05:19:29;;;;;;;2.53;2.37;;;16.80;64.00;;;;;;5094363;28;20505;-82
2022/01/23 05:22:19;;;;;;;3.13;2.40;;;16.80;63.90;;;;;;5088461;28;20458;-82
2022/01/23 05:24:52;;;;;;;2.70;2.50;;;16.80;64.00;;;;;;5073966;28;20495;-82
2022/01/23 05:27:21;;;;;;;3.00;2.73;;;16.80;64.00;;;;;;5073716;28;20456;-82
2022/01/23 05:29:50;;;;;;;5.07;2.70;;;16.80;64.00;;;;;;5074425;28;20461;-82
2022/01/23 05:32:20;;;;;;;5.67;2.80;;;16.90;64.10;;;;;;5075129;28;20524;-83
2022/01/23 05:34:49;;;;;;;2.60;2.40;;;16.90;64.00;;;;;;5076857;28;20485;-82
2022/01/23 05:37:17;;;;;;;3.37;3.00;;;16.90;64.00;;;;;;5077844;28;20508;-82
2022/01/23 05:39:44;;;;;;;2.40;2.30;;;16.90;64.20;;;;;;5080606;28;20475;-82
2022/01/23 05:42:12;;;;;;;2.47;2.27;;;16.90;64.00;;;;;;5078873;28;20426;-82
2022/01/23 05:44:41;;;;;;;2.60;2.40;;;16.90;64.00;;;;;;5079086;28;20445;-81
2022/01/23 05:47:09;;;;;;;2.13;1.93;;;16.90;64.70;;;;;;5077815;28;20466;-82
2022/01/23 05:49:39;;;;;;;2.80;2.50;;;16.90;64.00;;;;;;5077609;28;20451;-82
2022/01/23 05:52:07;;;;;;;2.97;2.67;;;16.80;64.00;;;;;;5077356;28;20505;-82
2022/01/23 05:54:35;;;;;;;3.03;2.83;;;16.80;64.00;;;;;;5077394;28;20541;-82
2022/01/23 05:57:04;;;;;;;3.10;2.80;;;16.80;63.90;;;;;;5060142;28;20459;-82
2022/01/23 05:59:31;;;;;;;2.10;2.00;;;16.90;64.10;;;;;;5076801;28;20461;-82
2022/01/23 06:02:00;;;;;;;2.50;2.40;;;16.90;64.00;;;;;;5076848;28;20441;-82
2022/01/23 06:04:28;;;;;;;2.20;2.10;;;16.80;64.10;;;;;;5077022;28;20450;-82
2022/01/23 06:07:06;;;;;;;3.33;2.47;;;16.80;64.00;;;;;;5077803;28;20473;-82
2022/01/23 06:09:36;;;;;;;2.30;2.13;;;16.80;64.00;;;;;;5077005;28;20417;-82
2022/01/23 06:12:06;;;;;;;3.07;2.67;;;16.80;64.10;;;;;;5076853;28;20422;-82
2022/01/23 06:14:34;;;;;;;3.40;2.47;;;16.80;64.10;;;;;;5069632;28;20497;-82
2022/01/23 06:17:01;;;;;;;3.60;2.70;;;16.80;64.10;;;;;;5077034;28;20429;-82
2022/01/23 06:19:29;;;;;;;2.70;2.50;;;16.80;64.20;;;;;;5077384;28;20430;-82
2022/01/23 06:21:58;;;;;;;2.57;2.37;;;16.80;63.90;;;;;;5077264;28;20854;-82
2022/01/23 06:24:30;;;;;;;2.73;2.60;;;16.80;64.10;;;;;;5077264;28;20445;-82
2022/01/23 06:26:59;;;;;;;2.70;2.50;;;16.80;64.20;;;;;;5077938;28;20436;-82
2022/01/23 06:29:30;;;;;;;2.23;2.13;;;16.80;64.00;;;;;;5077211;28;20468;-82
2022/01/23 06:31:58;;;;;;;2.73;2.43;;;16.80;64.10;;;;;;5077272;28;20446;-82
2022/01/23 06:34:27;;;;;;;2.77;2.57;;;16.80;64.00;;;;;;5077366;28;20468;-82
2022/01/23 06:36:55;;;;;;;2.47;2.27;;;16.80;64.10;;;;;;5077284;28;20480;-83
2022/01/23 06:39:23;;;;;;;2.60;2.40;;;16.80;64.20;;;;;;5080891;28;20541;-83
2022/01/23 06:41:52;;;;;;;2.77;2.50;;;16.80;64.10;;;;;;5080314;28;20437;-83
2022/01/23 06:44:21;;;;;;;2.80;2.20;;;16.80;64.10;;;;;;5080267;28;20476;-83
2022/01/23 06:46:50;;;;;;;3.00;2.27;;;16.80;64.20;;;;;;5080279;28;20446;-83
2022/01/23 06:49:17;;;;;;;2.30;2.20;;;16.80;64.10;;;;;;5078927;28;20986;-83
2022/01/23 06:51:47;;;;;;;2.83;2.53;;;16.80;64.90;;;;;;5079541;28;20433;-83
2022/01/23 06:54:14;;;;;;;2.67;2.43;;;16.80;64.20;;;;;;5080103;28;20458;-83
2022/01/23 06:56:43;;;;;;;3.10;2.00;;;16.80;64.10;;;;;;5080219;28;20481;-83
2022/01/23 06:59:12;;;;;;;2.37;2.20;;;16.80;64.10;;;;;;5080190;28;21039;-83
2022/01/23 07:01:40;;;;;;;2.20;2.10;;;16.80;64.20;;;;;;5080312;28;20537;-83
2022/01/23 07:04:09;;;;;;;3.33;2.40;;;16.80;64.20;;;;;;5080430;28;20446;-83
2022/01/23 07:06:36;;;;;;;2.33;2.23;;;16.80;64.10;;;;;;5079143;28;20473;-83
2022/01/23 07:09:08;;;;;;;2.00;1.90;;;16.80;64.00;;;;;;5080535;28;20461;-82
2022/01/23 07:11:36;;;;;;;2.13;2.03;;;16.80;64.10;;;;;;5079689;28;20429;-83
2022/01/23 07:14:04;;;;;;;2.37;2.27;;;16.80;64.20;;;;;;5079086;28;20484;-82
2022/01/23 07:16:33;;;;;;;2.13;1.77;;;16.80;64.10;;;;;;5079858;28;20441;-82
2022/01/23 07:19:02;;;;;;;2.33;2.20;;;16.80;64.10;;;;;;5080062;28;20526;-83
2022/01/23 07:21:29;;;;;;;2.63;2.43;;;16.80;64.10;;;;;;5079157;28;20498;-82
2022/01/23 07:23:58;;;;;;;1.90;1.80;;;16.80;64.20;;;;;;5065002;28;20470;-82
2022/01/23 07:26:27;;;;;;;2.30;2.20;;;16.80;64.10;;;;;;5079832;28;20442;-82
2022/01/23 07:28:58;;;;;;;2.90;2.70;;;16.80;64.90;;;;;;5079483;28;20426;-82
2022/01/23 07:31:44;;;;;;;2.73;2.53;;;16.80;64.10;;;;;;5076665;28;20468;-82
2022/01/23 07:34:19;;;;;;;2.50;2.30;;;16.80;64.10;;;;;;5088126;28;20449;-82
2022/01/23 07:36:47;;;;;;;2.43;2.23;;;16.80;64.20;;;;;;5079666;28;20437;-82
2022/01/23 07:39:15;;;;;;;2.13;2.03;;;16.80;64.10;;;;;;5073084;28;20494;-83
2022/01/23 07:41:43;;;;;;;2.40;2.20;;;16.80;64.00;;;;;;5079614;28;20429;-82
2022/01/23 07:44:11;;;;;;;3.70;1.87;;;16.80;64.10;;;;;;5059306;28;20461;-82
2022/01/23 07:46:39;;;;;;;2.03;1.93;;;16.80;64.00;;;;;;5059211;28;20933;-82
2022/01/23 07:49:07;;;;;;;2.10;2.00;;;16.80;64.10;;;;;;5065083;28;20426;-83
2022/01/23 07:51:36;;;;;;;2.10;2.00;;;16.70;63.80;;;;;;5076694;28;20430;-82
2022/01/23 07:54:04;;;;;;;2.30;2.10;;;16.80;64.10;;;;;;5079036;28;20474;-82
2022/01/23 07:56:32;;;;;;;2.70;2.50;;;16.80;64.10;;;;;;5078869;28;20461;-82
2022/01/23 07:59:00;;;;;;;2.20;2.10;;;16.80;64.20;;;;;;5079056;28;20466;-82
2022/01/23 08:01:30;;;;;;;2.60;2.40;;;16.80;64.10;;;;;;5078972;28;20430;-82
2022/01/23 08:03:58;;;;;;;2.33;2.13;;;16.80;64.20;;;;;;5078361;28;20485;-82
2022/01/23 08:06:31;;;;;;;2.30;2.13;;;16.80;64.00;;;;;;5078656;28;20445;-82
2022/01/23 08:09:01;;;;;;;4.43;2.17;;;16.80;64.00;;;;;;5066129;28;20421;-82
2022/01/23 08:11:28;;;;;;;1.93;1.77;;;16.80;64.00;;;;;;5089586;28;20469;-83
2022/01/23 08:13:57;;;;;;;2.73;2.53;;;16.90;64.10;;;;;;5080631;28;20481;-83
2022/01/23 08:16:24;;;;;;;2.40;2.20;;;16.90;64.10;;;;;;5080146;28;20484;-83
2022/01/23 08:18:53;;;;;;;2.00;1.90;;;16.90;64.10;;;;;;5079225;28;20513;-83
2022/01/23 08:21:20;;;;;;;2.70;2.40;;;16.90;63.90;;;;;;5079135;28;20517;-82
2022/01/23 08:23:52;;;;;;;2.33;2.13;;;17.00;64.10;;;;;;5079845;28;20464;-82
2022/01/23 08:26:22;;;;;;;2.27;1.97;;;17.00;64.10;;;;;;5080985;28;20528;-83
2022/01/23 08:28:50;;;;;;;2.23;2.10;;;17.00;63.90;;;;;;5096775;28;20494;-83
2022/01/23 08:31:18;;;;;;;2.10;1.93;;;17.00;63.80;;;;;;5062566;28;20533;-83
2022/01/23 08:33:46;;;;;;;2.70;2.40;;;17.10;63.80;;;;;;5075436;28;20956;-82
2022/01/23 08:36:16;;;;;;;2.43;2.20;;;17.10;63.80;;;;;;5079175;28;20479;-82
2022/01/23 08:38:43;;;;;;;2.70;2.50;;;17.10;63.80;;;;;;5078118;28;20493;-82
2022/01/23 08:43:58;;;;;;;2.27;2.17;;;17.20;63.60;;;;;;5072169;28;20456;-84
2022/01/23 08:46:26;;;;;;;2.27;2.17;;;17.20;63.80;;;;;;5086736;28;20453;-83
2022/01/23 08:48:56;;;;;;;2.17;2.07;;;17.30;63.60;;;;;;5078037;28;20499;-83
2022/01/23 08:51:25;;;;;;;2.40;2.30;;;17.30;63.80;;;;;;5078952;28;20473;-83
2022/01/23 08:53:52;;;;;;;2.53;2.33;;;17.30;63.70;;;;;;5078125;28;20553;-83
2022/01/23 08:56:21;;;;;;;4.57;2.40;;;17.30;63.50;;;;;;5078516;28;20450;-83
2022/01/23 08:58:49;;;;;;;2.20;2.10;;;17.40;64.00;;;;;;5078327;28;20500;-83
2022/01/23 09:01:19;;;;;;;2.43;2.20;;;17.40;63.60;;;;;;5078184;28;20446;-83
2022/01/23 09:03:47;;;;;;;2.80;2.60;;;17.50;63.60;;;;;;5074889;28;20478;-83
2022/01/23 09:06:16;;;;;;;3.10;2.77;;;17.50;63.60;;;;;;5078283;28;20432;-83
2022/01/23 09:08:45;;;;;;;2.33;2.10;;;17.50;63.70;;;;;;5078876;28;20432;-83
2022/01/23 09:11:25;;;;;;;2.43;2.20;;;17.50;63.50;;;;;;5078529;28;20441;-83
2022/01/23 09:14:06;;;;;;;3.43;2.43;;;17.50;63.50;;;;;;5063570;28;20468;-83
2022/01/23 09:16:37;;;;;;;2.83;2.60;;;17.50;63.40;;;;;;5078218;28;20438;-83
2022/01/23 09:19:05;;;;;;;2.03;1.93;;;17.50;63.50;;;;;;5098479;28;20548;-84
2022/01/23 09:21:33;;;;;;;2.20;1.90;;;17.50;63.50;;;;;;5077028;28;20509;-84
2022/01/23 09:24:01;;;;;;;2.37;2.20;;;17.50;63.50;;;;;;5080503;28;20553;-84
2022/01/23 09:26:29;;;;;;;2.47;2.27;;;17.60;63.60;;;;;;5079018;28;20524;-84
2022/01/23 09:29:00;;;;;;;2.47;2.27;;;17.60;63.50;;;;;;5075388;28;20506;-83
2022/01/23 09:31:33;;;;;;;2.90;2.20;;;17.50;63.50;;;;;;5079369;28;20453;-82
2022/01/23 09:34:02;;;;;;;2.67;2.47;;;17.60;63.70;;;;;;5065572;28;20477;-81
2022/01/23 09:36:30;;;;;;;3.30;2.57;;;17.60;63.60;;;;;;5072273;28;20481;-83
2022/01/23 09:38:57;;;;;;;4.00;2.60;;;17.60;63.50;;;;;;5063378;28;20474;-85
2022/01/23 09:41:35;;;;;;;4.00;2.47;;;17.70;63.60;;;;;;5066088;28;20454;-84
2022/01/23 09:44:03;;;;;;;2.27;2.07;;;17.70;63.60;;;;;;5063389;28;20557;-83
2022/01/23 09:46:31;;;;;;;2.33;2.23;;;17.70;63.60;;;;;;5084293;28;20518;-83
2022/01/23 09:49:01;;;;;;;2.63;2.50;;;17.80;63.50;;;;;;5066084;28;20516;-85
2022/01/23 09:51:29;;;;;;;3.37;3.07;;;17.80;63.00;;;;;;5072039;28;20484;-84
2022/01/23 09:53:57;;;;;;;3.17;2.87;;;17.70;63.00;;;;;;5078178;28;20538;-82
2022/01/23 09:56:27;;;;;;;3.40;3.20;;;17.70;62.50;;;;;;5084887;28;20452;-80
2022/01/23 09:59:15;;;;;;;2.80;2.50;;;17.60;62.60;;;;;;5078158;28;20457;-80
2022/01/23 10:01:45;;;;;;;3.30;3.00;;;17.70;62.40;;;;;;5070946;28;20537;-80
2022/01/23 10:04:15;;;;;;;3.13;2.93;;;17.70;62.40;;;;;;5069779;28;20474;-80
2022/01/23 10:06:43;;;;;;;3.30;3.00;;;17.70;62.00;;;;;;5071430;28;20460;-80
2022/01/23 10:09:11;;;;;;;3.13;2.93;;;17.70;62.30;;;;;;5056967;28;20496;-80
2022/01/23 10:11:42;;;;;;;2.57;2.37;;;17.70;62.00;;;;;;5075032;28;20450;-80
2022/01/23 10:14:10;;;;;;;3.47;2.90;;;17.80;61.60;;;;;;5072588;28;20470;-81
2022/01/23 10:16:38;;;;;;;2.40;2.30;;;17.80;61.50;;;;;;5065792;28;20545;-80
2022/01/23 10:19:07;;;;;;;2.77;2.57;;;17.80;61.40;;;;;;5075422;28;20462;-80
2022/01/23 10:21:38;;;;;;;2.90;2.70;;;17.90;60.90;;;;;;5076090;28;20465;-80
2022/01/23 10:24:07;;;;;;;3.17;2.20;;;18.00;60.80;;;;;;5071616;28;20561;-80
2022/01/23 10:26:39;;;;;;;2.33;2.23;;;18.00;60.60;;;;;;5071284;28;20450;-80
2022/01/23 10:29:19;;;;;;;2.60;2.40;;;18.00;60.50;;;;;;5061145;28;20500;-80
2022/01/23 10:32:06;;;;;;;2.90;2.30;;;18.00;60.40;;;;;;5079259;28;20433;-81
2022/01/23 10:34:42;;;;;;;2.27;2.13;;;18.10;60.30;;;;;;5077965;28;20512;-80
2022/01/23 10:37:12;;;;;;;2.70;2.50;;;18.20;60.00;;;;;;5078245;28;20446;-83
2022/01/23 10:39:41;;;;;;;3.33;2.00;;;18.20;59.70;;;;;;5060865;28;21045;-80
2022/01/23 10:48:27;;;;;;;2.07;1.97;;;18.20;59.50;;;;;;5079215;28;20520;-81
2022/01/23 10:51:20;;;;;;;3.40;2.37;;;18.30;59.60;;;;;;5077936;28;20461;-81
2022/01/23 10:54:10;;;;;;;2.00;1.90;;;18.40;59.50;;;;;;5072763;28;20979;-81
2022/01/23 10:56:40;;;;;;;2.10;1.90;;;18.40;59.40;;;;;;5070733;28;20446;-82
2022/01/23 10:59:09;;;;;;;2.30;2.13;;;18.40;59.30;;;;;;5073752;28;20473;-82
2022/01/23 11:01:37;;;;;;;2.40;2.23;;;18.40;59.20;;;;;;5066500;28;20991;-81
2022/01/23 11:04:07;;;;;;;1.90;1.80;;;18.50;59.10;;;;;;5073679;28;20473;-81
2022/01/23 11:06:51;;;;;;;3.60;2.33;;;18.50;59.00;;;;;;5072157;28;20465;-82
2022/01/23 11:09:23;;;;;;;3.73;2.20;;;18.50;58.70;;;;;;5074689;28;20426;-81
2022/01/23 11:11:59;;;;;;;2.07;1.97;;;18.50;58.70;;;;;;5069155;28;20834;-82
2022/01/23 11:17:23;;;;;;;2.27;2.07;;;18.50;58.70;;;;;;5074572;28;20476;-81
2022/01/23 11:19:58;;;;;;;5.07;2.10;;;18.50;58.50;;;;;;5065543;28;20493;-81
2022/01/23 11:22:28;;;;;;;2.30;2.20;;;18.50;58.40;;;;;;5064048;28;20485;-82
2022/01/23 11:25:02;;;;;;;3.03;2.10;;;18.50;58.60;;;;;;5074372;28;20529;-82
2022/01/23 11:27:34;;;;;;;15.30;2.27;;;18.50;58.60;;;;;;5075995;28;20493;-83
2022/01/23 11:30:07;;;;;;;2.70;2.10;;;18.60;59.00;;;;;;5068628;28;20446;-83
2022/01/23 11:32:38;;;;;;;3.63;2.10;;;18.60;59.00;;;;;;5061375;28;20457;-83
2022/01/23 11:35:09;;;;;;;7.10;2.07;;;18.60;59.10;;;;;;5057442;28;20478;-84
2022/01/23 11:37:44;;;;;;;3.73;2.13;;;18.70;59.30;;;;;;5072437;28;20492;-84
2022/01/23 11:40:31;;;;;;;2.50;2.27;;;18.70;59.30;;;;;;5072048;28;20473;-83
2022/01/23 11:54:05;;;;;;;2.97;2.47;;;18.90;59.90;;;;;;5073369;28;20500;-84
2022/01/23 11:56:43;;;;;;;7.47;2.23;;;18.80;59.90;;;;;;5066402;28;20462;-85
2022/01/23 11:59:33;;;;;;;2.50;2.07;;;18.90;60.20;;;;;;5060754;28;20830;-84
2022/01/23 12:05:24;;;;;;;3.87;2.30;;;18.90;60.30;;;;;;5054489;28;20537;-83
2022/01/23 12:08:19;;;;;;;4.77;2.20;;;18.90;60.40;;;;;;5069430;28;20533;-85
2022/01/23 12:17:23;;;;;;;2.37;2.17;;;18.90;60.80;;;;;;5067757;28;20456;-82
2022/01/23 12:19:55;;;;;;;3.33;2.23;;;18.90;61.10;;;;;;5079292;28;20887;-82
2022/01/23 12:22:30;;;;;;;3.07;2.33;;;18.90;61.10;;;;;;5097777;28;20566;-82
2022/01/23 12:24:59;;;;;;;1.97;1.87;;;18.90;61.20;;;;;;5089399;28;20477;-82
2022/01/23 12:27:32;;;;;;;2.77;2.10;;;18.90;61.30;;;;;;5076895;28;20426;-81
2022/01/23 12:30:11;;;;;;;2.53;2.33;;;18.90;61.30;;;;;;5076289;28;20450;-83
2022/01/23 12:32:46;;;;;;;7.33;2.40;;;18.90;61.40;;;;;;5069667;28;20450;-82
2022/01/23 12:35:15;;;;;;;2.23;2.13;;;18.90;61.50;;;;;;5073501;28;20489;-83
2022/01/23 12:38:05;;;;;;;2.70;2.27;;;18.90;61.30;;;;;;5073030;28;20438;-82
2022/01/23 12:40:35;;;;;;;2.50;2.30;;;19.00;61.50;;;;;;5073944;28;20469;-81
2022/01/23 12:43:04;;;;;;;2.40;2.20;;;18.90;61.50;;;;;;5077347;28;20450;-83
2022/01/23 12:45:52;;;;;;;4.30;2.33;;;18.90;61.60;;;;;;5076863;28;20474;-83
2022/01/23 12:48:45;;;;;;;3.53;2.03;;;18.90;61.60;;;;;;5076402;28;20468;-83
2022/01/23 12:51:43;;;;;;;2.70;2.50;;;18.90;61.80;;;;;;5069203;28;20449;-82
2022/01/23 12:54:30;;;;;;;4.80;2.43;;;18.90;61.80;;;;;;5076020;28;20855;-84
2022/01/23 12:57:09;;;;;;;3.77;2.30;;;18.90;61.90;;;;;;5077502;28;20456;-86
2022/01/23 12:59:42;;;;;;;3.23;1.93;;;18.90;61.90;;;;;;5073525;28;20462;-82
2022/01/23 13:02:25;;;;;;;4.40;2.30;;;18.80;61.90;;;;;;5074544;28;20449;-83
2022/01/23 13:04:54;;;;;;;2.47;2.37;;;18.80;61.70;;;;;;5070275;28;20515;-81
2022/01/23 13:07:30;;;;;;;2.43;2.23;;;18.80;61.80;;;;;;5066303;28;21010;-83
2022/01/23 13:10:07;;;;;;;2.40;2.20;;;18.80;61.70;;;;;;5064711;28;20549;-82
2022/01/23 13:12:51;;;;;;;2.60;2.30;;;18.80;61.70;;;;;;5074855;28;20475;-83
2022/01/23 13:15:40;;;;;;;5.40;2.00;;;18.80;61.40;;;;;;5066854;28;20442;-83
2022/01/23 13:18:31;;;;;;;2.40;1.50;;;18.70;61.10;;;;;;5067697;28;20453;-83
2022/01/23 13:27:23;;;;;;;1.93;1.50;;;18.60;60.60;;;;;;5033509;28;20444;-84
2022/01/23 13:29:55;;;;;;;1.77;1.67;;;18.60;60.40;;;;;;5068178;28;20433;-83
2022/01/23 13:32:29;;;;;;;1.70;1.60;;;18.60;60.30;;;;;;5081190;28;20455;-84
2022/01/23 13:35:03;;;;;;;1.50;1.40;;;18.60;60.10;;;;;;5085299;28;20552;-83
2022/01/23 13:37:34;;;;;;;1.67;1.57;;;18.60;59.90;;;;;;5082912;28;20527;-83
2022/01/23 13:40:05;;;;;;;3.03;1.57;;;18.50;59.70;;;;;;5087108;28;20466;-84
2022/01/23 13:42:56;;;;;;;2.37;1.50;;;18.50;59.80;;;;;;5092239;28;20456;-82
2022/01/23 13:59:38;;;;;;;2.60;1.23;;;18.40;59.30;;;;;;5084320;28;20457;-82
2022/01/23 14:02:16;;;;;;;2.00;1.10;;;18.40;59.50;;;;;;5088670;28;20470;-82
2022/01/23 14:04:45;;;;;;;2.10;1.10;;;18.40;59.40;;;;;;5092204;28;20468;-82
2022/01/23 14:07:17;;;;;;;1.40;1.40;;;18.30;59.40;;;;;;5093855;28;20461;-84
2022/01/23 14:09:50;;;;;;;2.90;1.80;;;18.40;59.60;;;;;;5080552;28;20489;-79
2022/01/23 14:12:19;;;;;;;2.40;2.20;;;18.40;59.70;;;;;;5083855;28;20462;-79
2022/01/23 14:15:05;;;;;;;1.53;1.43;;;18.40;59.30;;;;;;5083149;28;20496;-79
2022/01/23 14:17:36;;;;;;;1.70;1.60;;;18.40;59.30;;;;;;5102983;28;20433;-84
2022/01/23 14:20:05;;;;;;;2.90;1.60;;;18.50;59.10;;;;;;5102095;28;20515;-80
2022/01/23 14:22:36;;;;;;;1.47;1.37;;;18.40;58.80;;;;;;5102366;28;20479;-80
2022/01/23 14:25:15;;;;;;;1.93;1.80;;;18.40;59.10;;;;;;5103023;28;20464;-80
2022/01/23 14:27:44;;;;;;;1.50;1.40;;;18.40;59.10;;;;;;5079253;28;20440;-81
2022/01/23 14:30:15;;;;;;;1.83;1.53;;;18.30;59.10;;;;;;5062888;28;20453;-81
2022/01/23 14:32:46;;;;;;;2.60;1.20;;;18.40;59.00;;;;;;5062833;28;20427;-80
2022/01/23 14:35:16;;;;;;;1.63;1.53;;;18.30;59.00;;;;;;5062357;28;20442;-81
2022/01/23 14:37:47;;;;;;;1.20;1.20;;;18.30;58.80;;;;;;5062676;28;20470;-80
2022/01/23 14:40:17;;;;;;;1.57;1.43;;;18.30;58.90;;;;;;5062785;28;20446;-80
2022/01/23 14:43:01;;;;;;;1.87;1.37;;;18.30;58.80;;;;;;5072553;28;21574;-80
2022/01/23 14:45:30;;;;;;;1.20;1.10;;;18.20;59.00;;;;;;5083204;28;20458;-79
2022/01/23 14:47:58;;;;;;;1.40;1.33;;;18.20;58.70;;;;;;5083800;28;20487;-79
2022/01/23 14:50:28;;;;;;;1.30;1.20;;;18.20;58.80;;;;;;5085112;28;20459;-80
2022/01/23 14:52:58;;;;;;;1.20;1.20;;;18.10;58.80;;;;;;5084724;28;20469;-80
2022/01/23 14:55:25;;;;;;;1.60;1.50;;;18.10;58.60;;;;;;5084968;28;20476;-80
2022/01/23 14:57:59;;;;;;;1.60;1.50;;;18.20;58.70;;;;;;5082363;28;20430;-80
2022/01/23 15:00:29;;;;;;;1.63;1.53;;;18.10;58.50;;;;;;5075066;28;20584;-82
2022/01/23 15:02:57;;;;;;;1.63;1.53;;;18.20;58.80;;;;;;5080289;28;20992;-81
2022/01/23 15:05:25;;;;;;;1.20;1.20;;;18.10;58.50;;;;;;5088549;28;20494;-81
2022/01/23 15:07:54;;;;;;;4.50;1.50;;;18.10;58.40;;;;;;5080623;28;20426;-81
2022/01/23 15:10:24;;;;;;;2.33;1.20;;;18.10;58.30;;;;;;5077856;28;20470;-81
2022/01/23 15:12:51;;;;;;;1.20;1.10;;;18.00;58.30;;;;;;5080776;28;20453;-81
2022/01/23 15:15:19;;;;;;;1.60;1.50;;;18.10;58.60;;;;;;5079574;28;20438;-82
2022/01/23 15:17:47;;;;;;;1.50;1.40;;;18.10;58.30;;;;;;5081946;28;20495;-82
2022/01/23 15:20:16;;;;;;;1.77;1.40;;;18.00;58.20;;;;;;5079228;28;20453;-82
2022/01/23 15:22:44;;;;;;;0.93;0.93;;;18.00;58.30;;;;;;5082532;28;20470;-82
2022/01/23 15:25:12;;;;;;;1.30;1.20;;;18.00;58.10;;;;;;5077346;28;20516;-82
2022/01/23 15:27:42;;;;;;;1.50;1.40;;;17.90;58.00;;;;;;5080073;28;20425;-82
2022/01/23 15:30:12;;;;;;;1.17;1.17;;;17.90;58.00;;;;;;5079509;28;20426;-82
2022/01/23 15:32:40;;;;;;;1.30;1.30;;;17.90;58.00;;;;;;5079494;28;20448;-82
2022/01/23 15:35:09;;;;;;;1.70;1.60;;;17.90;58.00;;;;;;5079879;28;20448;-81
2022/01/23 15:37:37;;;;;;;1.30;1.20;;;17.90;57.90;;;;;;5078109;28;20450;-81
2022/01/23 15:40:06;;;;;;;1.47;1.30;;;17.90;57.80;;;;;;5079282;28;20509;-81
2022/01/23 15:42:34;;;;;;;1.30;1.20;;;17.90;57.80;;;;;;5074859;28;20526;-82
2022/01/23 15:45:04;;;;;;;1.17;1.10;;;17.80;57.80;;;;;;5079627;28;20540;-81
2022/01/23 15:47:32;;;;;;;1.40;1.30;;;17.90;57.80;;;;;;5079804;28;20524;-83